Time;durP1;ratioP1;P1;durP2;ratioP2;P2;SDS_P1;SDS_P2;PMS_P1;PMS_P2;Temp;Humidity;BMP_temperature;BMP_pressure;BME280_temperature;BME280_humidity;BME280_pressure;Samples;Min_cycle;Max_cycle;Signal;HPM_P1;HPM_P2
2021/03/20 00:00:22;;;;;;;24.23;20.25;;;;;;;20.08;37.95;103312.81;5052340;28;20087;-77
2021/03/20 00:02:47;;;;;;;26.50;20.20;;;;;;;20.11;38.07;103317.75;5052671;28;20054;-77
2021/03/20 00:05:13;;;;;;;25.13;20.52;;;;;;;20.16;37.93;103311.25;5051270;28;20060;-77
2021/03/20 00:07:39;;;;;;;32.17;21.40;;;;;;;20.19;37.93;103310.63;5052530;28;20075;-77
2021/03/20 00:10:11;;;;;;;23.77;20.10;;;;;;;20.20;37.98;103309.50;5052307;28;20033;-76
2021/03/20 00:12:38;;;;;;;25.23;20.70;;;;;;;20.25;37.83;103312.13;5052102;28;20160;-76
2021/03/20 00:15:06;;;;;;;25.98;21.27;;;;;;;20.31;37.81;103312.81;5052012;28;20040;-77
2021/03/20 00:17:32;;;;;;;25.40;20.48;;;;;;;20.37;37.88;103319.88;5050940;28;20498;-77
2021/03/20 00:19:57;;;;;;;24.00;20.40;;;;;;;20.41;37.95;103312.56;5052614;28;20112;-77
2021/03/20 00:22:23;;;;;;;30.05;20.95;;;;;;;20.39;38.06;103317.59;5052013;28;20124;-77
2021/03/20 00:24:48;;;;;;;21.85;19.05;;;;;;;20.43;37.87;103313.88;5052384;28;20117;-78
2021/03/20 00:27:14;;;;;;;24.92;20.73;;;;;;;20.47;37.85;103309.34;5052294;28;20025;-76
2021/03/20 00:29:39;;;;;;;23.23;20.77;;;;;;;20.46;38.03;103310.47;5051623;28;20032;-79
2021/03/20 00:32:06;;;;;;;25.90;21.77;;;;;;;20.48;37.85;103304.63;5052130;28;20534;-77
2021/03/20 00:34:31;;;;;;;22.67;20.27;;;;;;;20.50;38.00;103303.16;5052090;28;20093;-77
2021/03/20 00:36:57;;;;;;;26.10;21.02;;;;;;;20.49;38.04;103309.03;5051713;28;20032;-76
2021/03/20 00:39:22;;;;;;;21.63;19.35;;;;;;;20.54;37.98;103302.50;5050683;28;20028;-75
2021/03/20 00:41:48;;;;;;;20.42;18.27;;;;;;;20.55;37.99;103296.63;5050935;28;20449;-76
2021/03/20 00:44:13;;;;;;;21.98;18.60;;;;;;;20.56;38.08;103295.53;5050861;28;20082;-76
2021/03/20 00:46:39;;;;;;;19.63;17.35;;;;;;;20.56;38.05;103300.25;5050453;28;20025;-76
2021/03/20 00:49:05;;;;;;;17.63;15.80;;;;;;;20.58;38.18;103300.75;5052150;28;20026;-75
2021/03/20 00:51:31;;;;;;;18.50;16.60;;;;;;;20.61;38.04;103302.88;5051761;28;20056;-75
2021/03/20 00:53:56;;;;;;;17.35;15.63;;;;;;;20.60;38.11;103298.47;5051972;28;20079;-76
2021/03/20 00:56:22;;;;;;;16.55;14.65;;;;;;;20.63;38.18;103295.03;5052759;28;20032;-76
2021/03/20 00:58:47;;;;;;;16.90;15.10;;;;;;;20.63;38.16;103303.38;5055863;28;20032;-75
2021/03/20 01:01:17;;;;;;;16.48;14.82;;;;;;;20.62;38.16;103290.63;5055763;28;20100;-75
2021/03/20 01:03:44;;;;;;;16.23;14.27;;;;;;;20.68;38.18;103292.94;5054487;28;20029;-76
2021/03/20 01:06:12;;;;;;;15.75;14.10;;;;;;;20.65;38.12;103296.38;5055901;28;20487;-85
2021/03/20 01:08:38;;;;;;;17.42;15.18;;;;;;;20.65;38.27;103303.88;5053987;28;20593;-77
2021/03/20 01:11:06;;;;;;;16.55;14.23;;;;;;;20.69;38.20;103307.66;5054004;28;20020;-76
2021/03/20 01:13:31;;;;;;;17.00;14.60;;;;;;;20.69;38.31;103310.44;5053746;28;20386;-77
2021/03/20 01:15:57;;;;;;;15.00;13.35;;;;;;;20.68;38.21;103315.16;5054847;28;20111;-76
2021/03/20 01:18:23;;;;;;;15.25;13.75;;;;;;;20.63;38.35;103307.00;5055699;28;20029;-76
2021/03/20 01:20:49;;;;;;;13.05;11.68;;;;;;;20.64;38.50;103314.19;5055333;28;20064;-77
2021/03/20 01:23:15;;;;;;;12.98;11.18;;;;;;;20.55;38.31;103316.06;5055510;28;20029;-77
2021/03/20 01:25:41;;;;;;;14.05;12.27;;;;;;;20.56;38.40;103309.41;5055397;28;20037;-84
2021/03/20 01:28:07;;;;;;;13.82;12.05;;;;;;;20.51;38.48;103320.66;5054113;28;20060;-77
2021/03/20 01:30:38;;;;;;;15.32;13.70;;;;;;;20.44;38.37;103309.97;5055435;28;20108;-77
2021/03/20 01:33:04;;;;;;;14.20;12.70;;;;;;;20.38;38.72;103316.78;5054737;28;20025;-76
2021/03/20 01:35:30;;;;;;;13.18;11.68;;;;;;;20.41;38.38;103310.59;5055150;28;20064;-76
2021/03/20 01:37:56;;;;;;;12.80;11.27;;;;;;;20.39;38.54;103317.59;5055161;28;20067;-76
2021/03/20 01:40:26;;;;;;;12.38;11.02;;;;;;;20.25;38.82;103317.66;5055111;28;20056;-77
2021/03/20 01:42:52;;;;;;;18.42;16.60;;;;;;;20.25;38.79;103317.66;5055178;28;20040;-81
2021/03/20 01:45:21;;;;;;;20.98;18.95;;;;;;;20.34;38.62;103315.78;5054930;28;20037;-76
2021/03/20 01:48:09;;;;;;;20.60;18.60;;;;;;;20.23;38.73;103320.75;5055028;28;20033;-77
2021/03/20 01:50:39;;;;;;;35.45;31.85;;;;;;;20.24;38.63;103316.84;5054893;28;20063;-77
2021/03/20 01:53:17;;;;;;;36.55;32.83;;;;;;;20.32;38.50;103315.25;5054908;28;20076;-76
2021/03/20 01:55:43;;;;;;;35.58;31.90;;;;;;;20.32;38.65;103318.03;5054132;28;20036;-76
2021/03/20 01:58:09;;;;;;;34.88;31.33;;;;;;;20.36;38.42;103318.25;5054581;28;20069;-76
2021/03/20 02:00:39;;;;;;;29.13;26.23;;;;;;;20.26;38.60;103313.78;5054764;28;20021;-77
2021/03/20 02:03:10;;;;;;;19.42;17.42;;;;;;;20.29;38.50;103313.13;5054888;28;20060;-77
2021/03/20 02:05:36;;;;;;;21.67;18.60;;;;;;;20.29;38.47;103313.13;5054541;28;20024;-76
2021/03/20 02:08:04;;;;;;;14.77;13.15;;;;;;;20.21;38.87;103311.13;5054383;28;20467;-76
2021/03/20 02:10:33;;;;;;;13.00;11.60;;;;;;;20.15;38.85;103313.19;5054573;28;20025;-84
2021/03/20 02:13:08;;;;;;;13.57;12.05;;;;;;;20.15;38.80;103315.97;5054555;28;20029;-85
2021/03/20 02:15:40;;;;;;;14.52;12.40;;;;;;;20.15;38.63;103317.94;5054575;28;20029;-82
2021/03/20 02:18:15;;;;;;;15.43;12.80;;;;;;;20.15;38.73;103306.84;5054502;28;20059;-77
2021/03/20 02:21:10;;;;;;;13.93;12.43;;;;;;;20.22;38.67;103309.97;5053398;28;20033;-78
2021/03/20 02:23:42;;;;;;;15.05;13.45;;;;;;;20.19;38.68;103305.06;5054431;28;20040;-76
2021/03/20 02:26:16;;;;;;;14.35;12.75;;;;;;;20.25;38.62;103306.56;5054244;28;20379;-77
2021/03/20 02:29:20;;;;;;;14.30;11.52;;;;;;;20.16;38.85;103302.91;5054390;28;20021;-76
2021/03/20 02:32:11;;;;;;;14.55;12.73;;;;;;;20.13;38.72;103300.78;5053832;28;20024;-76
2021/03/20 02:35:11;;;;;;;12.48;11.18;;;;;;;20.10;38.77;103301.41;5049512;28;20040;-77
2021/03/20 02:38:02;;;;;;;12.88;11.55;;;;;;;20.08;38.86;103310.06;5054145;28;20035;-76
2021/03/20 02:40:51;;;;;;;14.82;12.27;;;;;;;20.12;38.83;103296.38;5054110;28;20222;-77
2021/03/20 02:43:37;;;;;;;13.85;12.40;;;;;;;20.09;38.68;103291.44;5046875;28;20037;-77
2021/03/20 02:46:21;;;;;;;13.32;11.65;;;;;;;20.10;38.81;103281.97;5052617;28;20025;-85
2021/03/20 02:48:50;;;;;;;13.13;11.73;;;;;;;20.07;38.81;103286.22;5053892;28;20029;-77
2021/03/20 02:51:54;;;;;;;15.30;12.93;;;;;;;20.05;38.78;103280.16;5053894;28;20070;-76
2021/03/20 02:54:23;;;;;;;15.70;12.57;;;;;;;20.08;38.63;103282.28;5032430;28;20037;-77
2021/03/20 02:57:14;;;;;;;18.88;14.40;;;;;;;20.08;38.83;103279.53;5053710;28;20078;-77
2021/03/20 02:59:45;;;;;;;16.27;14.55;;;;;;;20.09;38.62;103280.34;5053735;28;20078;-76
2021/03/20 03:02:13;;;;;;;16.33;13.80;;;;;;;20.07;38.81;103274.28;5053649;28;20021;-77
2021/03/20 03:05:07;;;;;;;13.98;12.05;;;;;;;19.99;38.81;103277.84;5053602;28;20079;-77
2021/03/20 03:07:50;;;;;;;15.27;13.68;;;;;;;20.00;38.88;103273.91;5049908;28;20033;-77
2021/03/20 03:10:34;;;;;;;14.95;13.40;;;;;;;19.98;38.56;103265.91;5053773;28;20083;-80
2021/03/20 03:13:05;;;;;;;14.55;12.23;;;;;;;19.97;38.73;103277.34;5053388;28;20028;-76
2021/03/20 03:15:38;;;;;;;13.88;11.77;;;;;;;19.94;38.55;103274.03;5053409;28;20089;-86
2021/03/20 03:18:12;;;;;;;14.43;12.10;;;;;;;19.90;38.57;103283.31;5053710;28;20029;-77
2021/03/20 03:20:44;;;;;;;13.35;11.95;;;;;;;19.89;38.64;103282.50;5051294;28;20087;-78
2021/03/20 03:23:16;;;;;;;13.30;11.90;;;;;;;19.80;38.73;103289.94;5052975;28;20064;-77
2021/03/20 03:25:45;;;;;;;14.38;12.35;;;;;;;19.80;38.81;103289.94;5053139;28;20029;-77
2021/03/20 03:28:17;;;;;;;12.57;11.23;;;;;;;19.79;38.69;103281.91;5053118;28;20425;-77
2021/03/20 03:30:44;;;;;;;12.52;11.05;;;;;;;19.83;38.45;103288.50;5052928;28;20356;-77
2021/03/20 03:33:25;;;;;;;12.63;11.05;;;;;;;19.85;38.58;103280.66;5053098;28;20029;-77
2021/03/20 03:35:56;;;;;;;13.60;11.68;;;;;;;19.86;38.57;103287.84;5053183;28;20051;-77
2021/03/20 03:38:46;;;;;;;11.65;10.45;;;;;;;19.86;38.58;103287.84;5052932;28;20028;-76
2021/03/20 03:41:22;;;;;;;14.13;12.43;;;;;;;19.84;38.50;103282.63;5052952;28;20031;-77
2021/03/20 03:43:50;;;;;;;13.35;11.50;;;;;;;19.90;38.42;103281.38;5052920;28;20056;-76
2021/03/20 03:46:18;;;;;;;12.45;11.15;;;;;;;19.91;38.58;103287.72;5052953;28;20037;-77
2021/03/20 03:48:44;;;;;;;15.38;12.02;;;;;;;19.94;38.57;103282.34;5051641;28;20043;-77
2021/03/20 03:51:17;;;;;;;14.27;11.68;;;;;;;19.91;38.61;103280.22;5052707;28;20594;-81
2021/03/20 03:53:44;;;;;;;12.65;11.27;;;;;;;19.97;38.54;103280.09;5050900;28;20057;-77
2021/03/20 03:56:44;;;;;;;12.65;11.18;;;;;;;19.96;38.53;103282.06;5052689;28;20048;-84
2021/03/20 03:59:22;;;;;;;12.88;11.52;;;;;;;19.90;38.62;103270.28;5051634;28;20064;-77
2021/03/20 04:01:59;;;;;;;13.13;11.45;;;;;;;19.91;38.65;103274.69;5052593;28;20057;-77
2021/03/20 04:05:02;;;;;;;12.68;11.25;;;;;;;19.92;38.69;103270.75;5052481;28;20075;-77
2021/03/20 04:07:34;;;;;;;24.80;11.95;;;;;;;19.92;38.79;103265.22;5052638;28;20078;-77
2021/03/20 04:10:27;;;;;;;11.70;10.50;;;;;;;19.97;38.54;103277.34;5052501;28;20472;-84
2021/03/20 04:12:58;;;;;;;13.07;11.35;;;;;;;20.00;38.60;103283.06;5052622;28;20028;-77
2021/03/20 04:15:31;;;;;;;12.90;11.55;;;;;;;20.05;38.61;103271.03;5052549;28;20052;-77
2021/03/20 04:18:08;;;;;;;13.10;11.50;;;;;;;20.00;38.61;103271.97;5052601;28;20039;-82
2021/03/20 04:20:59;;;;;;;13.15;11.65;;;;;;;20.03;38.58;103274.13;5052119;28;20036;-77
2021/03/20 04:23:40;;;;;;;12.05;10.73;;;;;;;20.01;38.60;103270.00;5051982;28;20035;-77
2021/03/20 04:26:20;;;;;;;12.90;11.23;;;;;;;19.99;38.72;103263.97;5052408;28;20032;-77
2021/03/20 04:28:52;;;;;;;12.73;11.43;;;;;;;20.01;38.75;103273.59;5051489;28;20132;-86
2021/03/20 04:31:26;;;;;;;12.75;11.02;;;;;;;20.04;38.81;103272.97;5052446;28;20029;-77
2021/03/20 04:34:01;;;;;;;14.18;11.40;;;;;;;20.02;38.90;103263.31;5056154;28;20025;-77
2021/03/20 04:36:47;;;;;;;13.57;10.70;;;;;;;20.00;38.79;103273.91;5056020;28;20053;-80
2021/03/20 04:39:15;;;;;;;14.82;12.23;;;;;;;20.06;38.74;103270.69;5056324;28;20083;-77
2021/03/20 04:41:42;;;;;;;14.70;12.70;;;;;;;20.09;38.64;103270.06;5055831;28;20057;-78
2021/03/20 04:44:09;;;;;;;13.95;11.68;;;;;;;20.15;38.59;103270.75;5056206;28;20032;-85
2021/03/20 04:46:37;;;;;;;16.58;12.38;;;;;;;19.97;39.06;103269.81;5056190;28;20032;-77
2021/03/20 04:49:38;;;;;;;12.85;11.27;;;;;;;20.08;38.87;103278.69;5056185;28;20024;-84
2021/03/20 04:52:07;;;;;;;15.80;12.05;;;;;;;20.17;38.63;103276.78;5055537;28;20400;-77
2021/03/20 04:54:32;;;;;;;14.77;12.52;;;;;;;20.20;38.57;103278.94;5056073;28;20017;-77
2021/03/20 04:57:11;;;;;;;12.93;11.55;;;;;;;20.16;38.53;103275.97;5055789;28;20108;-77
2021/03/20 04:59:55;;;;;;;14.27;12.23;;;;;;;20.18;38.70;103284.81;5055894;28;20102;-77
2021/03/20 05:02:39;;;;;;;13.85;11.85;;;;;;;20.17;38.76;103285.13;5055987;28;20270;-77
2021/03/20 05:05:27;;;;;;;14.10;12.60;;;;;;;20.13;38.68;103284.13;5056160;28;20068;-77
2021/03/20 05:07:54;;;;;;;14.23;12.68;;;;;;;20.17;38.70;103291.50;5055748;28;20033;-77
2021/03/20 05:10:36;;;;;;;13.02;11.63;;;;;;;20.18;38.76;103284.81;5055797;28;20045;-77
2021/03/20 05:13:05;;;;;;;13.23;11.38;;;;;;;20.17;38.64;103282.34;5055568;28;20035;-77
2021/03/20 05:15:33;;;;;;;15.27;11.70;;;;;;;20.11;38.83;103278.09;5055734;28;20384;-76
2021/03/20 05:17:59;;;;;;;15.02;11.95;;;;;;;20.17;38.93;103276.78;5055869;28;20025;-78
2021/03/20 05:20:25;;;;;;;16.00;12.65;;;;;;;20.16;38.82;103283.50;5054176;28;20082;-77
2021/03/20 05:22:51;;;;;;;13.50;11.90;;;;;;;20.26;38.70;103286.03;5055607;28;20056;-82
2021/03/20 05:25:21;;;;;;;14.23;12.32;;;;;;;20.13;38.94;103282.16;5055396;28;20032;-77
2021/03/20 05:27:46;;;;;;;16.05;12.73;;;;;;;20.17;38.84;103274.03;5055539;28;20510;-77
2021/03/20 05:30:16;;;;;;;14.82;12.25;;;;;;;20.11;38.92;103273.34;5055297;28;20098;-77
2021/03/20 05:32:42;;;;;;;;;;;;;;;20.09;39.00;103272.81;5055900;28;20380;-82
2021/03/20 05:35:18;;;;;;;14.13;11.25;;;;;;;20.13;38.86;103264.69;5055466;28;19909;-77
2021/03/20 05:37:44;;;;;;;15.07;12.93;;;;;;;20.18;38.77;103267.34;5055193;28;20033;-78
2021/03/20 05:40:24;;;;;;;14.77;12.75;;;;;;;20.19;38.68;103269.00;5055098;28;20051;-77
2021/03/20 05:43:22;;;;;;;19.30;13.80;;;;;;;20.21;38.91;103272.25;5054584;28;20033;-87
2021/03/20 05:46:42;;;;;;;15.90;13.13;;;;;;;20.23;38.64;103267.19;5054716;28;20055;-77
2021/03/20 05:49:16;;;;;;;14.85;12.63;;;;;;;20.24;38.72;103271.63;5052888;28;20041;-76
2021/03/20 05:52:09;;;;;;;15.27;12.93;;;;;;;20.22;38.70;103273.91;5049463;28;20029;-76
2021/03/20 05:55:12;;;;;;;18.05;13.85;;;;;;;20.19;38.83;103274.53;5041006;28;20041;-81
2021/03/20 05:57:48;;;;;;;14.77;12.85;;;;;;;20.26;38.72;103276.88;5034980;28;20029;-77
2021/03/20 06:00:26;;;;;;;14.68;13.13;;;;;;;20.25;38.72;103273.25;5034974;28;20030;-76
2021/03/20 06:03:00;;;;;;;15.57;13.00;;;;;;;20.26;38.71;103271.31;5035018;28;20030;-86
2021/03/20 06:05:28;;;;;;;17.45;13.82;;;;;;;20.34;38.64;103274.13;5034939;28;20041;-76
2021/03/20 06:08:00;;;;;;;16.55;13.20;;;;;;;20.38;38.65;103274.31;5034838;28;20435;-77
2021/03/20 06:10:32;;;;;;;20.98;14.50;;;;;;;20.22;39.12;103274.72;5034762;28;20513;-77
2021/03/20 06:13:17;;;;;;;21.15;13.93;;;;;;;20.27;38.78;103281.28;5034630;28;20056;-77
2021/03/20 06:15:59;;;;;;;24.35;13.52;;;;;;;20.20;38.93;103282.53;5034449;28;20384;-76
2021/03/20 06:19:03;;;;;;;17.27;13.68;;;;;;;20.21;38.90;103284.19;5033475;28;20033;-79
2021/03/20 06:21:54;;;;;;;25.15;15.45;;;;;;;20.21;38.83;103288.91;5040806;28;20103;-77
2021/03/20 06:24:39;;;;;;;18.63;14.50;;;;;;;20.20;38.98;103301.16;5034437;28;20030;-77
2021/03/20 06:27:14;;;;;;;19.42;13.93;;;;;;;20.18;39.16;103289.56;5049834;28;20366;-77
2021/03/20 06:30:24;;;;;;;24.88;14.32;;;;;;;20.17;39.03;103296.22;5034092;28;20030;-77
2021/03/20 06:32:52;;;;;;;16.55;14.18;;;;;;;20.23;38.89;103292.19;5036752;28;20037;-85
2021/03/20 06:35:28;;;;;;;22.50;15.30;;;;;;;20.15;39.10;103295.72;5034305;28;20037;-77
2021/03/20 06:37:57;;;;;;;15.10;13.35;;;;;;;20.21;38.99;103298.06;5055961;28;20055;-83
2021/03/20 06:40:50;;;;;;;15.32;12.90;;;;;;;20.19;39.01;103303.13;5053904;28;20391;-86
2021/03/20 06:43:19;;;;;;;15.73;14.02;;;;;;;20.27;38.86;103298.75;5051675;28;20025;-84
2021/03/20 06:45:46;;;;;;;19.00;14.23;;;;;;;20.32;38.75;103289.47;5052590;28;20048;-78
2021/03/20 06:48:13;;;;;;;15.52;13.43;;;;;;;20.27;39.01;103295.97;5053174;28;20028;-87
2021/03/20 06:50:48;;;;;;;17.85;13.52;;;;;;;20.24;39.02;103291.03;5053410;28;20025;-86
2021/03/20 06:53:18;;;;;;;18.70;14.40;;;;;;;20.28;39.03;103291.25;5052288;28;20392;-81
2021/03/20 06:55:46;;;;;;;17.40;13.80;;;;;;;20.32;38.92;103290.28;5051854;28;20033;-87
2021/03/20 06:58:30;;;;;;;17.98;14.20;;;;;;;20.35;39.04;103289.66;5052605;28;20029;-85
2021/03/20 07:01:00;;;;;;;22.17;14.48;;;;;;;20.33;39.16;103297.50;5048070;28;20206;-79
2021/03/20 07:04:03;;;;;;;17.85;13.32;;;;;;;20.40;39.00;103285.91;5052353;28;20036;-83
2021/03/20 07:06:46;;;;;;;17.95;15.40;;;;;;;20.41;38.83;103282.03;5051802;28;20025;-78
2021/03/20 07:09:12;;;;;;;15.10;12.75;;;;;;;20.46;38.96;103281.88;5052188;28;20032;-80
2021/03/20 07:11:42;;;;;;;23.35;14.70;;;;;;;20.42;39.06;103281.69;5050702;28;20031;-77
2021/03/20 07:14:09;;;;;;;;;;;;;;;20.44;38.95;103282.22;5052303;28;20055;-77
2021/03/20 07:16:58;;;;;;;24.80;14.82;;;;;;;20.45;38.96;103277.47;5051856;28;19917;-77
2021/03/20 07:19:24;;;;;;;20.13;14.55;;;;;;;20.49;38.81;103278.50;5051598;28;20028;-83
2021/03/20 07:21:59;;;;;;;16.73;14.68;;;;;;;20.49;38.81;103279.31;5052031;28;20048;-77
2021/03/20 07:24:40;;;;;;;17.38;13.88;;;;;;;20.48;38.67;103269.34;5052409;28;20032;-83
2021/03/20 07:27:06;;;;;;;17.48;13.65;;;;;;;20.51;38.87;103276.22;5052483;28;20541;-77
2021/03/20 07:29:56;;;;;;;20.95;15.30;;;;;;;20.46;38.98;103277.16;5052351;28;20021;-78
2021/03/20 07:32:24;;;;;;;26.65;14.88;;;;;;;20.48;39.02;103282.41;5052555;28;20029;-84
2021/03/20 07:35:09;;;;;;;32.28;16.38;;;;;;;20.45;39.07;103283.03;5052214;28;20032;-77
2021/03/20 07:37:35;;;;;;;15.75;13.07;;;;;;;20.56;38.92;103278.84;5052631;28;20021;-79
2021/03/20 07:40:02;;;;;;;15.20;13.07;;;;;;;20.61;38.93;103287.03;5052607;28;20040;-89
2021/03/20 07:42:37;;;;;;;17.33;13.52;;;;;;;20.58;38.92;103282.13;5052740;28;20021;-88
2021/03/20 07:45:18;;;;;;;18.27;13.90;;;;;;;20.64;38.85;103280.03;5051409;28;20735;-87
2021/03/20 07:47:59;;;;;;;22.00;13.02;;;;;;;20.71;38.71;103292.31;5052832;28;20392;-82
2021/03/20 07:50:48;;;;;;;16.65;13.15;;;;;;;20.69;38.90;103289.03;5052666;28;20025;-77
2021/03/20 07:53:16;;;;;;;17.08;14.02;;;;;;;20.76;38.80;103283.81;5052452;28;20102;-84
2021/03/20 07:55:56;;;;;;;15.80;13.80;;;;;;;20.72;38.88;103290.34;5052119;28;20021;-77
2021/03/20 07:58:27;;;;;;;17.38;14.25;;;;;;;20.74;38.88;103286.09;5050677;28;20033;-77
2021/03/20 08:00:59;;;;;;;14.40;12.75;;;;;;;20.78;38.78;103289.03;5052962;28;20047;-88
2021/03/20 08:03:32;;;;;;;21.60;14.75;;;;;;;20.71;38.86;103291.50;5052854;28;20029;-87
2021/03/20 08:06:11;;;;;;;16.80;13.50;;;;;;;20.75;38.86;103289.69;5053937;28;20262;-78
2021/03/20 08:08:38;;;;;;;23.48;15.05;;;;;;;20.85;38.84;103291.38;5056977;28;20504;-78
2021/03/20 08:11:04;;;;;;;20.50;14.38;;;;;;;20.90;38.79;103296.78;5052019;28;20032;-86
2021/03/20 08:13:52;;;;;;;16.63;13.95;;;;;;;20.93;38.66;103304.47;5052704;28;20438;-78
2021/03/20 08:16:20;;;;;;;17.15;13.75;;;;;;;20.92;38.80;103303.66;5052923;28;20061;-78
2021/03/20 08:18:48;;;;;;;16.08;12.02;;;;;;;20.96;38.86;103299.09;5052979;28;20495;-80
2021/03/20 08:21:25;;;;;;;21.25;15.00;;;;;;;21.03;38.77;103307.78;5051527;28;20072;-80
2021/03/20 08:24:21;;;;;;;20.88;14.05;;;;;;;21.05;38.95;103310.25;5052678;28;20036;-80
2021/03/20 08:27:11;;;;;;;19.13;14.23;;;;;;;20.95;39.05;103310.53;5053353;28;20360;-88
2021/03/20 08:30:18;;;;;;;18.05;14.02;;;;;;;20.98;38.76;103305.16;5053377;28;20115;-78
2021/03/20 08:32:49;;;;;;;19.25;14.10;;;;;;;21.09;38.84;103314.03;5086235;28;20036;-89
2021/03/20 08:35:47;;;;;;;16.63;12.63;;;;;;;21.19;38.50;103310.94;5052683;28;20017;-82
2021/03/20 08:38:19;;;;;;;15.40;12.15;;;;;;;21.17;38.63;103309.63;5055406;28;20123;-79
2021/03/20 08:40:53;;;;;;;15.30;12.20;;;;;;;21.05;38.72;103302.72;5052664;28;20021;-89
2021/03/20 08:43:33;;;;;;;11.40;9.82;;;;;;;20.82;38.77;103298.41;5052513;28;20021;-87
2021/03/20 08:46:12;;;;;;;18.73;10.73;;;;;;;20.99;38.69;103297.63;5051315;28;20090;-79
2021/03/20 08:48:56;;;;;;;23.27;12.02;;;;;;;21.04;38.58;103300.25;5052362;28;20025;-78
2021/03/20 08:51:40;;;;;;;14.32;9.40;;;;;;;20.97;38.54;103303.50;5052618;28;20064;-87
2021/03/20 08:54:49;;;;;;;16.10;10.18;;;;;;;20.88;38.58;103305.44;5031310;28;20026;-81
2021/03/20 08:57:53;;;;;;;19.95;10.63;;;;;;;20.68;39.04;103297.69;5041861;28;20029;-87
2021/03/20 09:00:27;;;;;;;13.57;10.60;;;;;;;20.88;38.74;103296.28;5052114;28;20057;-78
2021/03/20 09:02:56;;;;;;;15.85;10.55;;;;;;;20.92;38.55;103305.63;5052332;28;20108;-77
2021/03/20 09:05:33;;;;;;;13.60;8.75;;;;;;;20.93;38.52;103310.03;5052068;28;20025;-78
2021/03/20 09:08:34;;;;;;;13.05;8.02;;;;;;;20.94;38.54;103309.72;5052051;28;20112;-87
2021/03/20 09:11:02;;;;;;;10.13;7.68;;;;;;;20.94;38.50;103318.06;5084182;28;20033;-88
2021/03/20 09:13:44;;;;;;;10.25;7.38;;;;;;;20.94;38.38;103317.25;5051193;28;20021;-87
2021/03/20 09:16:39;;;;;;;11.63;8.00;;;;;;;20.58;38.52;103325.75;5052367;28;20100;-78
2021/03/20 09:19:40;;;;;;;14.88;9.48;;;;;;;20.55;38.72;103329.16;5054646;28;20040;-89
2021/03/20 09:22:05;;;;;;;;;;;;;;;20.46;38.85;103334.66;5032356;28;20041;-89
2021/03/20 09:24:32;;;;;;;12.70;7.35;;;;;;;20.54;38.63;103331.09;5053893;28;19920;-79
2021/03/20 09:27:00;;;;;;;9.48;7.32;;;;;;;20.59;38.61;103333.75;5054718;28;20083;-80
2021/03/20 09:29:34;;;;;;;10.75;7.50;;;;;;;20.54;38.54;103336.66;5054730;28;20047;-86
2021/03/20 09:32:12;;;;;;;8.93;6.45;;;;;;;20.45;38.83;103331.06;5054856;28;20031;-78
2021/03/20 09:34:42;;;;;;;10.75;7.10;;;;;;;20.49;38.47;103334.84;5054464;28;20056;-84
2021/03/20 09:37:16;;;;;;;10.48;6.80;;;;;;;20.53;38.52;103335.03;5055154;28;20127;-79
2021/03/20 09:39:49;;;;;;;10.57;7.28;;;;;;;20.40;38.67;103328.41;5055180;28;20021;-87
2021/03/20 09:42:24;;;;;;;11.52;7.15;;;;;;;20.42;38.71;103331.69;5054239;28;20075;-80
2021/03/20 09:44:51;;;;;;;10.98;6.32;;;;;;;20.45;38.66;103327.47;5054851;28;20420;-86
2021/03/20 09:47:35;;;;;;;10.55;6.97;;;;;;;20.69;38.20;103329.88;5055091;28;20028;-85
2021/03/20 09:50:23;;;;;;;10.68;7.45;;;;;;;20.73;38.29;103319.78;5054964;28;20024;-78
2021/03/20 09:53:16;;;;;;;11.40;6.85;;;;;;;20.76;38.11;103317.16;5057308;28;20040;-78
2021/03/20 09:55:46;;;;;;;9.55;7.25;;;;;;;20.75;38.11;103336.94;5055359;28;20092;-85
2021/03/20 09:58:18;;;;;;;;;;;;;;;20.62;38.14;103332.28;5055490;28;20474;-87
2021/03/20 10:00:53;;;;;;;23.63;7.40;;;;;;;20.66;37.77;103334.13;5053887;28;19916;-88
2021/03/20 10:03:42;;;;;;;8.05;5.50;;;;;;;20.76;37.24;103333.00;5054966;28;20021;-78
2021/03/20 10:06:26;;;;;;;10.38;6.55;;;;;;;20.37;38.04;103330.97;5055111;28;20021;-82
2021/03/20 10:09:17;;;;;;;17.73;7.35;;;;;;;20.76;37.66;103338.56;5054954;28;20021;-78
2021/03/20 10:11:52;;;;;;;9.38;5.28;;;;;;;20.87;37.35;103328.81;5055252;28;20104;-78
2021/03/20 10:14:27;;;;;;;9.75;5.85;;;;;;;20.76;37.31;103338.56;5054890;28;20031;-78
2021/03/20 10:17:06;;;;;;;7.28;5.40;;;;;;;20.90;37.01;103332.91;5055149;28;20057;-83
2021/03/20 10:19:36;;;;;;;10.38;7.07;;;;;;;20.94;37.14;103322.81;5054748;28;20083;-77
2021/03/20 10:22:06;;;;;;;18.75;12.13;;;;;;;20.64;37.30;103330.03;5054551;28;20043;-86
2021/03/20 10:24:33;;;;;;;19.45;14.00;;;;;;;20.62;37.59;103330.31;5054806;28;20127;-78
2021/03/20 10:27:04;;;;;;;24.83;14.63;;;;;;;20.44;38.04;103334.16;5053339;28;20087;-78
2021/03/20 10:29:39;;;;;;;23.80;10.80;;;;;;;20.73;37.37;103344.78;5054732;28;20079;-78
2021/03/20 10:32:15;;;;;;;21.05;10.07;;;;;;;20.75;37.24;103328.59;5053515;28;20025;-90
2021/03/20 10:34:54;;;;;;;10.73;8.13;;;;;;;20.57;37.53;103313.00;5054164;28;20060;-84
2021/03/20 10:37:21;;;;;;;13.98;8.98;;;;;;;20.63;37.61;103317.25;5054445;28;20025;-79
2021/03/20 10:40:01;;;;;;;11.88;8.73;;;;;;;20.71;37.34;103316.50;5054306;28;20501;-80
2021/03/20 10:42:35;;;;;;;16.60;8.82;;;;;;;20.81;37.18;103310.66;5054204;28;20036;-78
2021/03/20 10:45:09;;;;;;;13.15;8.77;;;;;;;21.01;37.00;103307.31;5054273;28;20041;-88
2021/03/20 10:47:38;;;;;;;16.48;9.20;;;;;;;21.22;36.78;103306.69;5053360;28;20029;-78
2021/03/20 10:50:25;;;;;;;13.20;8.70;;;;;;;21.21;37.04;103310.59;5052292;28;20079;-88
2021/03/20 10:52:52;;;;;;;38.47;12.75;;;;;;;21.22;37.16;103320.59;5051725;28;20454;-79
2021/03/20 10:55:24;;;;;;;18.42;10.02;;;;;;;21.32;36.72;103318.38;5052700;28;20025;-86
2021/03/20 10:57:51;;;;;;;20.95;10.73;;;;;;;21.35;36.78;103318.84;5052537;28;20040;-78
2021/03/20 11:00:20;;;;;;;12.70;9.32;;;;;;;21.24;36.89;103318.31;5053038;28;20117;-79
2021/03/20 11:02:45;;;;;;;15.75;9.68;;;;;;;21.40;36.51;103311.19;5048894;28;20047;-88
2021/03/20 11:05:20;;;;;;;15.30;10.18;;;;;;;21.31;36.62;103321.44;5053078;28;20032;-78
2021/03/20 11:07:55;;;;;;;14.18;9.50;;;;;;;21.57;36.09;103311.19;5052932;28;20028;-78
2021/03/20 11:10:29;;;;;;;15.55;10.23;;;;;;;21.49;36.48;103311.19;5053551;28;20056;-89
2021/03/20 11:12:56;;;;;;;16.27;8.90;;;;;;;21.62;36.44;103312.19;5051695;28;20099;-82
2021/03/20 11:15:29;;;;;;;11.15;7.80;;;;;;;21.53;36.29;103307.41;5052103;28;20031;-79
2021/03/20 11:18:00;;;;;;;14.32;9.07;;;;;;;21.73;35.96;103300.38;5049946;28;20025;-89
2021/03/20 11:20:33;;;;;;;12.55;7.80;;;;;;;21.58;36.40;103303.66;5051238;28;20032;-78
2021/03/20 11:22:59;;;;;;;10.27;7.15;;;;;;;21.46;36.36;103297.91;5051829;28;20045;-78
2021/03/20 11:25:33;;;;;;;10.73;7.32;;;;;;;21.83;36.38;103293.66;5050696;28;20035;-80
2021/03/20 11:28:27;;;;;;;12.82;8.50;;;;;;;21.86;36.11;103295.81;5051289;28;20106;-83
2021/03/20 11:30:56;;;;;;;11.15;7.47;;;;;;;21.98;35.78;103295.94;5051200;28;20078;-89
2021/03/20 11:33:26;;;;;;;12.20;9.05;;;;;;;22.17;35.70;103286.44;5050075;28;20044;-78
2021/03/20 11:35:56;;;;;;;20.30;8.90;;;;;;;22.36;35.52;103275.75;5052035;28;20434;-78
2021/03/20 11:38:23;;;;;;;11.73;7.90;;;;;;;22.44;35.66;103274.88;5051814;28;20039;-78
2021/03/20 11:41:12;;;;;;;13.05;8.70;;;;;;;22.27;35.10;103272.97;5052310;28;20021;-78
2021/03/20 11:43:47;;;;;;;18.13;8.27;;;;;;;22.49;35.34;103271.13;5052014;28;20033;-78
2021/03/20 11:46:17;;;;;;;14.13;8.00;;;;;;;22.69;35.06;103265.63;5051250;28;20274;-85
2021/03/20 11:49:01;;;;;;;13.25;7.93;;;;;;;22.81;35.25;103255.72;5051313;28;20033;-79